sensor_id;sensor_type;location;lat;lon;timestamp;temperature;humidity
50758;DHT22;36732;47.980;11.652;2023-02-28T00:00:48;3.40;53.00
50758;DHT22;36732;47.980;11.652;2023-02-28T00:03:14;3.50;53.10
50758;DHT22;36732;47.980;11.652;2023-02-28T00:05:39;3.50;53.10
50758;DHT22;36732;47.980;11.652;2023-02-28T00:08:06;3.40;52.90
50758;DHT22;36732;47.980;11.652;2023-02-28T00:10:33;3.40;52.90
50758;DHT22;36732;47.980;11.652;2023-02-28T00:13:02;3.50;52.90
50758;DHT22;36732;47.980;11.652;2023-02-28T00:15:29;3.50;52.80
50758;DHT22;36732;47.980;11.652;2023-02-28T00:17:55;3.50;52.70
50758;DHT22;36732;47.980;11.652;2023-02-28T00:20:20;3.50;52.60
50758;DHT22;36732;47.980;11.652;2023-02-28T00:22:49;3.50;53.10
50758;DHT22;36732;47.980;11.652;2023-02-28T00:25:20;3.50;52.30
50758;DHT22;36732;47.980;11.652;2023-02-28T00:27:48;3.50;52.20
50758;DHT22;36732;47.980;11.652;2023-02-28T00:30:21;3.50;52.20
50758;DHT22;36732;47.980;11.652;2023-02-28T00:32:48;3.50;51.50
50758;DHT22;36732;47.980;11.652;2023-02-28T00:35:15;3.50;51.70
50758;DHT22;36732;47.980;11.652;2023-02-28T00:37:41;3.40;51.70
50758;DHT22;36732;47.980;11.652;2023-02-28T00:40:08;3.40;51.40
50758;DHT22;36732;47.980;11.652;2023-02-28T00:42:35;3.40;51.40
50758;DHT22;36732;47.980;11.652;2023-02-28T00:45:01;3.40;51.30
50758;DHT22;36732;47.980;11.652;2023-02-28T00:47:29;3.40;51.30
50758;DHT22;36732;47.980;11.652;2023-02-28T00:49:54;3.40;51.30
50758;DHT22;36732;47.980;11.652;2023-02-28T00:52:20;3.30;51.00
50758;DHT22;36732;47.980;11.652;2023-02-28T00:54:46;3.30;50.90
50758;DHT22;36732;47.980;11.652;2023-02-28T00:57:12;3.30;50.80
50758;DHT22;36732;47.980;11.652;2023-02-28T00:59:38;3.30;50.70
50758;DHT22;36732;47.980;11.652;2023-02-28T01:02:03;3.30;50.70
50758;DHT22;36732;47.980;11.652;2023-02-28T01:04:30;3.30;50.70
50758;DHT22;36732;47.980;11.652;2023-02-28T01:06:56;3.20;50.50
50758;DHT22;36732;47.980;11.652;2023-02-28T01:09:21;3.20;50.30
50758;DHT22;36732;47.980;11.652;2023-02-28T01:11:47;3.20;50.40
50758;DHT22;36732;47.980;11.652;2023-02-28T01:14:14;3.10;50.20
50758;DHT22;36732;47.980;11.652;2023-02-28T01:16:42;3.10;50.20
50758;DHT22;36732;47.980;11.652;2023-02-28T01:19:08;3.10;50.20
50758;DHT22;36732;47.980;11.652;2023-02-28T01:21:34;3.00;50.10
50758;DHT22;36732;47.980;11.652;2023-02-28T01:24:01;3.00;50.00
50758;DHT22;36732;47.980;11.652;2023-02-28T01:26:28;3.00;50.00
50758;DHT22;36732;47.980;11.652;2023-02-28T01:28:53;3.00;49.70
50758;DHT22;36732;47.980;11.652;2023-02-28T01:31:20;3.00;49.90
50758;DHT22;36732;47.980;11.652;2023-02-28T01:33:46;2.90;49.70
50758;DHT22;36732;47.980;11.652;2023-02-28T01:36:15;2.90;49.70
50758;DHT22;36732;47.980;11.652;2023-02-28T01:38:43;2.90;49.80
50758;DHT22;36732;47.980;11.652;2023-02-28T01:41:24;2.80;49.50
50758;DHT22;36732;47.980;11.652;2023-02-28T01:43:57;2.80;49.40
50758;DHT22;36732;47.980;11.652;2023-02-28T01:46:23;2.80;49.50
50758;DHT22;36732;47.980;11.652;2023-02-28T01:49:21;2.80;49.50
50758;DHT22;36732;47.980;11.652;2023-02-28T01:51:49;2.70;49.20
50758;DHT22;36732;47.980;11.652;2023-02-28T01:54:21;2.70;49.40
50758;DHT22;36732;47.980;11.652;2023-02-28T01:57:04;2.70;49.40
50758;DHT22;36732;47.980;11.652;2023-02-28T02:02:02;2.70;49.70
50758;DHT22;36732;47.980;11.652;2023-02-28T02:04:33;2.70;49.40
50758;DHT22;36732;47.980;11.652;2023-02-28T02:07:03;2.60;49.00
50758;DHT22;36732;47.980;11.652;2023-02-28T02:09:30;2.60;49.30
50758;DHT22;36732;47.980;11.652;2023-02-28T02:11:56;2.60;49.20
50758;DHT22;36732;47.980;11.652;2023-02-28T02:17:05;2.60;49.30
50758;DHT22;36732;47.980;11.652;2023-02-28T02:23:02;2.50;48.80
50758;DHT22;36732;47.980;11.652;2023-02-28T02:25:44;2.50;48.90
50758;DHT22;36732;47.980;11.652;2023-02-28T02:28:51;2.40;48.80
50758;DHT22;36732;47.980;11.652;2023-02-28T02:36:50;2.40;49.00
50758;DHT22;36732;47.980;11.652;2023-02-28T02:42:39;2.40;49.00
50758;DHT22;36732;47.980;11.652;2023-02-28T02:45:27;2.30;49.00
50758;DHT22;36732;47.980;11.652;2023-02-28T02:48:04;2.30;49.20
50758;DHT22;36732;47.980;11.652;2023-02-28T02:50:37;2.30;49.40
50758;DHT22;36732;47.980;11.652;2023-02-28T02:53:06;2.30;49.20
50758;DHT22;36732;47.980;11.652;2023-02-28T02:55:38;2.30;49.20
50758;DHT22;36732;47.980;11.652;2023-02-28T02:58:10;2.20;49.10
50758;DHT22;36732;47.980;11.652;2023-02-28T03:00:44;2.20;49.20
50758;DHT22;36732;47.980;11.652;2023-02-28T03:03:14;2.20;49.10
50758;DHT22;36732;47.980;11.652;2023-02-28T03:05:47;2.20;49.10
50758;DHT22;36732;47.980;11.652;2023-02-28T03:08:14;2.20;49.10
50758;DHT22;36732;47.980;11.652;2023-02-28T03:10:45;2.20;49.10
50758;DHT22;36732;47.980;11.652;2023-02-28T03:19:07;2.20;49.00
50758;DHT22;36732;47.980;11.652;2023-02-28T03:22:29;2.20;48.80
50758;DHT22;36732;47.980;11.652;2023-02-28T03:24:52;2.10;48.80
50758;DHT22;36732;47.980;11.652;2023-02-28T03:30:03;2.10;49.10
50758;DHT22;36732;47.980;11.652;2023-02-28T03:32:38;2.10;48.60
50758;DHT22;36732;47.980;11.652;2023-02-28T03:35:14;2.10;48.60
50758;DHT22;36732;47.980;11.652;2023-02-28T03:38:03;2.10;48.60
50758;DHT22;36732;47.980;11.652;2023-02-28T03:40:36;2.00;48.70
50758;DHT22;36732;47.980;11.652;2023-02-28T03:43:08;2.00;48.60
50758;DHT22;36732;47.980;11.652;2023-02-28T03:45:37;2.00;48.40
50758;DHT22;36732;47.980;11.652;2023-02-28T03:48:24;2.00;48.40
50758;DHT22;36732;47.980;11.652;2023-02-28T03:50:57;2.00;48.50
50758;DHT22;36732;47.980;11.652;2023-02-28T03:53:29;2.00;48.40
50758;DHT22;36732;47.980;11.652;2023-02-28T03:56:15;1.90;48.30
50758;DHT22;36732;47.980;11.652;2023-02-28T03:58:51;1.90;48.10
50758;DHT22;36732;47.980;11.652;2023-02-28T04:04:07;1.90;48.20
50758;DHT22;36732;47.980;11.652;2023-02-28T04:06:34;1.90;48.20
50758;DHT22;36732;47.980;11.652;2023-02-28T04:09:00;1.90;48.30
50758;DHT22;36732;47.980;11.652;2023-02-28T04:11:46;1.90;48.30
50758;DHT22;36732;47.980;11.652;2023-02-28T04:14:15;1.80;48.20
50758;DHT22;36732;47.980;11.652;2023-02-28T04:16:41;1.90;48.40
50758;DHT22;36732;47.980;11.652;2023-02-28T04:19:09;1.80;48.30
50758;DHT22;36732;47.980;11.652;2023-02-28T04:21:41;1.80;48.30
50758;DHT22;36732;47.980;11.652;2023-02-28T04:24:14;1.80;48.40
50758;DHT22;36732;47.980;11.652;2023-02-28T04:26:45;1.80;48.90
50758;DHT22;36732;47.980;11.652;2023-02-28T04:29:17;1.80;48.30
50758;DHT22;36732;47.980;11.652;2023-02-28T04:31:45;1.80;48.40
50758;DHT22;36732;47.980;11.652;2023-02-28T04:34:10;1.80;48.20
50758;DHT22;36732;47.980;11.652;2023-02-28T04:36:36;1.80;48.10
50758;DHT22;36732;47.980;11.652;2023-02-28T04:39:02;1.70;48.20
50758;DHT22;36732;47.980;11.652;2023-02-28T04:41:29;1.70;48.40
50758;DHT22;36732;47.980;11.652;2023-02-28T04:43:55;1.70;48.50
50758;DHT22;36732;47.980;11.652;2023-02-28T04:46:22;1.70;48.60
50758;DHT22;36732;47.980;11.652;2023-02-28T04:48:48;1.70;48.50
50758;DHT22;36732;47.980;11.652;2023-02-28T04:51:16;1.70;48.50
50758;DHT22;36732;47.980;11.652;2023-02-28T04:53:43;1.70;48.50
50758;DHT22;36732;47.980;11.652;2023-02-28T04:56:12;1.70;48.30
50758;DHT22;36732;47.980;11.652;2023-02-28T04:58:39;1.70;48.40
50758;DHT22;36732;47.980;11.652;2023-02-28T05:01:20;1.70;48.50
50758;DHT22;36732;47.980;11.652;2023-02-28T05:03:55;1.70;48.50
50758;DHT22;36732;47.980;11.652;2023-02-28T05:06:24;1.70;48.70
50758;DHT22;36732;47.980;11.652;2023-02-28T05:08:52;1.70;48.80
50758;DHT22;36732;47.980;11.652;2023-02-28T05:11:24;1.70;48.90
50758;DHT22;36732;47.980;11.652;2023-02-28T05:13:51;1.70;48.90
50758;DHT22;36732;47.980;11.652;2023-02-28T05:16:18;1.70;49.10
50758;DHT22;36732;47.980;11.652;2023-02-28T05:18:44;1.70;49.40
50758;DHT22;36732;47.980;11.652;2023-02-28T05:23:56;1.70;50.00
50758;DHT22;36732;47.980;11.652;2023-02-28T05:26:23;1.70;50.10
50758;DHT22;36732;47.980;11.652;2023-02-28T05:28:49;1.70;50.30
50758;DHT22;36732;47.980;11.652;2023-02-28T05:31:15;1.70;50.50
50758;DHT22;36732;47.980;11.652;2023-02-28T05:33:41;1.70;50.60
50758;DHT22;36732;47.980;11.652;2023-02-28T05:36:07;1.70;50.60
50758;DHT22;36732;47.980;11.652;2023-02-28T05:38:33;1.70;50.60
50758;DHT22;36732;47.980;11.652;2023-02-28T05:40:59;1.70;50.70
50758;DHT22;36732;47.980;11.652;2023-02-28T05:43:24;1.70;50.80
50758;DHT22;36732;47.980;11.652;2023-02-28T05:45:50;1.70;50.90
50758;DHT22;36732;47.980;11.652;2023-02-28T05:48:16;1.70;51.10
50758;DHT22;36732;47.980;11.652;2023-02-28T05:50:43;1.70;51.40
50758;DHT22;36732;47.980;11.652;2023-02-28T05:53:11;1.70;51.60
50758;DHT22;36732;47.980;11.652;2023-02-28T05:55:37;1.70;51.70
50758;DHT22;36732;47.980;11.652;2023-02-28T05:58:03;1.70;52.00
50758;DHT22;36732;47.980;11.652;2023-02-28T06:00:29;1.60;52.20
50758;DHT22;36732;47.980;11.652;2023-02-28T06:02:54;1.60;52.40
50758;DHT22;36732;47.980;11.652;2023-02-28T06:05:23;1.60;52.80
50758;DHT22;36732;47.980;11.652;2023-02-28T06:07:49;1.60;53.00
50758;DHT22;36732;47.980;11.652;2023-02-28T06:10:15;1.60;53.20
50758;DHT22;36732;47.980;11.652;2023-02-28T06:12:41;1.70;53.60
50758;DHT22;36732;47.980;11.652;2023-02-28T06:15:10;1.70;53.70
50758;DHT22;36732;47.980;11.652;2023-02-28T06:17:37;1.70;53.80
50758;DHT22;36732;47.980;11.652;2023-02-28T06:20:04;1.80;54.00
50758;DHT22;36732;47.980;11.652;2023-02-28T06:22:31;1.80;54.10
50758;DHT22;36732;47.980;11.652;2023-02-28T06:24:57;1.90;54.20
50758;DHT22;36732;47.980;11.652;2023-02-28T06:27:22;1.90;54.20
50758;DHT22;36732;47.980;11.652;2023-02-28T06:29:48;2.00;54.40
50758;DHT22;36732;47.980;11.652;2023-02-28T06:32:14;2.00;54.40
50758;DHT22;36732;47.980;11.652;2023-02-28T06:34:40;2.10;54.40
50758;DHT22;36732;47.980;11.652;2023-02-28T06:37:06;2.10;54.50
50758;DHT22;36732;47.980;11.652;2023-02-28T06:39:32;2.10;54.50
50758;DHT22;36732;47.980;11.652;2023-02-28T06:41:57;2.20;54.60
50758;DHT22;36732;47.980;11.652;2023-02-28T06:44:24;2.20;54.60
50758;DHT22;36732;47.980;11.652;2023-02-28T06:46:49;2.20;54.60
50758;DHT22;36732;47.980;11.652;2023-02-28T06:49:15;2.30;54.50
50758;DHT22;36732;47.980;11.652;2023-02-28T06:51:43;2.30;54.50
50758;DHT22;36732;47.980;11.652;2023-02-28T06:54:12;2.30;54.60
50758;DHT22;36732;47.980;11.652;2023-02-28T06:56:38;2.30;54.50
50758;DHT22;36732;47.980;11.652;2023-02-28T06:59:04;2.40;54.60
50758;DHT22;36732;47.980;11.652;2023-02-28T07:01:30;2.40;54.60
50758;DHT22;36732;47.980;11.652;2023-02-28T07:03:58;2.40;54.70
50758;DHT22;36732;47.980;11.652;2023-02-28T07:06:25;2.40;54.60
50758;DHT22;36732;47.980;11.652;2023-02-28T07:08:52;2.40;54.60
50758;DHT22;36732;47.980;11.652;2023-02-28T07:11:20;2.40;54.50
50758;DHT22;36732;47.980;11.652;2023-02-28T07:13:48;2.40;54.60
50758;DHT22;36732;47.980;11.652;2023-02-28T07:16:14;2.50;54.60
50758;DHT22;36732;47.980;11.652;2023-02-28T07:18:40;2.50;54.70
50758;DHT22;36732;47.980;11.652;2023-02-28T07:21:08;2.50;54.70
50758;DHT22;36732;47.980;11.652;2023-02-28T07:23:35;2.50;55.40
50758;DHT22;36732;47.980;11.652;2023-02-28T07:26:03;2.50;54.80
50758;DHT22;36732;47.980;11.652;2023-02-28T07:28:29;2.50;54.80
50758;DHT22;36732;47.980;11.652;2023-02-28T07:30:55;2.50;54.80
50758;DHT22;36732;47.980;11.652;2023-02-28T07:33:21;2.50;54.80
50758;DHT22;36732;47.980;11.652;2023-02-28T07:35:47;2.50;54.70
50758;DHT22;36732;47.980;11.652;2023-02-28T07:38:12;2.50;54.70
50758;DHT22;36732;47.980;11.652;2023-02-28T07:40:39;2.50;54.70
50758;DHT22;36732;47.980;11.652;2023-02-28T07:43:05;2.50;54.80
50758;DHT22;36732;47.980;11.652;2023-02-28T07:45:30;2.60;54.70
50758;DHT22;36732;47.980;11.652;2023-02-28T07:47:59;2.50;54.70
50758;DHT22;36732;47.980;11.652;2023-02-28T07:50:26;2.50;54.70
50758;DHT22;36732;47.980;11.652;2023-02-28T07:52:56;2.50;54.80
50758;DHT22;36732;47.980;11.652;2023-02-28T07:55:23;2.50;54.70
50758;DHT22;36732;47.980;11.652;2023-02-28T07:57:49;2.50;54.70
50758;DHT22;36732;47.980;11.652;2023-02-28T08:00:15;2.50;54.80
50758;DHT22;36732;47.980;11.652;2023-02-28T08:02:40;2.50;54.80
50758;DHT22;36732;47.980;11.652;2023-02-28T08:05:07;2.50;54.80
50758;DHT22;36732;47.980;11.652;2023-02-28T08:07:33;2.50;54.90
50758;DHT22;36732;47.980;11.652;2023-02-28T08:09:59;2.60;54.80
50758;DHT22;36732;47.980;11.652;2023-02-28T08:12:25;2.60;54.70
50758;DHT22;36732;47.980;11.652;2023-02-28T08:14:51;2.60;54.70
50758;DHT22;36732;47.980;11.652;2023-02-28T08:17:17;2.60;54.70
50758;DHT22;36732;47.980;11.652;2023-02-28T08:19:45;2.60;54.70
50758;DHT22;36732;47.980;11.652;2023-02-28T08:22:11;2.60;54.80
50758;DHT22;36732;47.980;11.652;2023-02-28T08:24:37;2.60;54.90
50758;DHT22;36732;47.980;11.652;2023-02-28T08:27:03;2.60;54.90
50758;DHT22;36732;47.980;11.652;2023-02-28T08:29:28;2.60;54.90
50758;DHT22;36732;47.980;11.652;2023-02-28T08:31:55;2.60;55.00
50758;DHT22;36732;47.980;11.652;2023-02-28T08:34:21;2.60;55.10
50758;DHT22;36732;47.980;11.652;2023-02-28T08:36:46;2.60;55.10
50758;DHT22;36732;47.980;11.652;2023-02-28T08:39:12;2.60;55.20
50758;DHT22;36732;47.980;11.652;2023-02-28T08:41:38;2.60;55.20
50758;DHT22;36732;47.980;11.652;2023-02-28T08:44:04;2.60;55.00
50758;DHT22;36732;47.980;11.652;2023-02-28T08:46:30;2.60;55.00
50758;DHT22;36732;47.980;11.652;2023-02-28T08:48:56;2.70;55.10
50758;DHT22;36732;47.980;11.652;2023-02-28T08:51:26;2.70;55.10
50758;DHT22;36732;47.980;11.652;2023-02-28T08:53:53;2.70;55.10
50758;DHT22;36732;47.980;11.652;2023-02-28T08:56:21;2.70;55.20
50758;DHT22;36732;47.980;11.652;2023-02-28T08:58:48;2.70;55.20
50758;DHT22;36732;47.980;11.652;2023-02-28T09:01:16;2.70;55.80
50758;DHT22;36732;47.980;11.652;2023-02-28T09:03:46;2.70;55.00
50758;DHT22;36732;47.980;11.652;2023-02-28T09:06:14;2.70;55.10
50758;DHT22;36732;47.980;11.652;2023-02-28T09:08:41;2.80;55.20
50758;DHT22;36732;47.980;11.652;2023-02-28T09:11:07;2.80;55.10
50758;DHT22;36732;47.980;11.652;2023-02-28T09:13:33;2.80;55.10
50758;DHT22;36732;47.980;11.652;2023-02-28T09:16:01;2.80;55.10
50758;DHT22;36732;47.980;11.652;2023-02-28T09:18:29;2.80;55.20
50758;DHT22;36732;47.980;11.652;2023-02-28T09:20:55;2.80;55.20
50758;DHT22;36732;47.980;11.652;2023-02-28T09:23:21;2.80;55.20
50758;DHT22;36732;47.980;11.652;2023-02-28T09:25:49;2.80;55.30
50758;DHT22;36732;47.980;11.652;2023-02-28T09:28:16;2.80;55.40
50758;DHT22;36732;47.980;11.652;2023-02-28T09:30:48;2.80;55.30
50758;DHT22;36732;47.980;11.652;2023-02-28T09:33:15;2.90;55.40
50758;DHT22;36732;47.980;11.652;2023-02-28T09:35:42;2.90;55.40
50758;DHT22;36732;47.980;11.652;2023-02-28T09:38:09;2.90;55.40
50758;DHT22;36732;47.980;11.652;2023-02-28T09:40:39;2.90;55.30
50758;DHT22;36732;47.980;11.652;2023-02-28T09:43:19;2.90;55.30
50758;DHT22;36732;47.980;11.652;2023-02-28T09:45:54;2.90;55.30
50758;DHT22;36732;47.980;11.652;2023-02-28T09:48:35;2.90;55.30
50758;DHT22;36732;47.980;11.652;2023-02-28T09:51:15;2.90;55.20
50758;DHT22;36732;47.980;11.652;2023-02-28T09:53:56;2.90;55.30
50758;DHT22;36732;47.980;11.652;2023-02-28T09:56:25;2.90;55.30
50758;DHT22;36732;47.980;11.652;2023-02-28T09:59:23;2.90;55.30
50758;DHT22;36732;47.980;11.652;2023-02-28T10:04:51;3.00;55.30
50758;DHT22;36732;47.980;11.652;2023-02-28T10:07:38;3.00;55.30
50758;DHT22;36732;47.980;11.652;2023-02-28T10:10:32;3.00;55.40
50758;DHT22;36732;47.980;11.652;2023-02-28T10:15:58;3.00;55.30
50758;DHT22;36732;47.980;11.652;2023-02-28T10:18:35;3.00;55.30
50758;DHT22;36732;47.980;11.652;2023-02-28T10:21:18;3.00;55.40
50758;DHT22;36732;47.980;11.652;2023-02-28T10:23:48;3.00;55.50
50758;DHT22;36732;47.980;11.652;2023-02-28T10:26:17;3.00;55.60
50758;DHT22;36732;47.980;11.652;2023-02-28T10:28:43;3.00;55.60
50758;DHT22;36732;47.980;11.652;2023-02-28T10:31:15;3.00;56.20
50758;DHT22;36732;47.980;11.652;2023-02-28T10:33:44;3.00;55.70
50758;DHT22;36732;47.980;11.652;2023-02-28T10:36:15;3.00;55.70
50758;DHT22;36732;47.980;11.652;2023-02-28T10:38:44;3.00;55.80
50758;DHT22;36732;47.980;11.652;2023-02-28T10:41:17;3.00;55.70
50758;DHT22;36732;47.980;11.652;2023-02-28T10:44:12;3.10;55.70
50758;DHT22;36732;47.980;11.652;2023-02-28T10:46:40;3.10;55.70
50758;DHT22;36732;47.980;11.652;2023-02-28T10:49:23;3.10;55.50
50758;DHT22;36732;47.980;11.652;2023-02-28T10:51:57;3.10;55.40
50758;DHT22;36732;47.980;11.652;2023-02-28T10:54:29;3.10;55.40
50758;DHT22;36732;47.980;11.652;2023-02-28T10:57:18;3.10;55.50
50758;DHT22;36732;47.980;11.652;2023-02-28T11:00:05;3.20;55.50
50758;DHT22;36732;47.980;11.652;2023-02-28T11:02:42;3.20;55.60
50758;DHT22;36732;47.980;11.652;2023-02-28T11:05:32;3.20;55.60
50758;DHT22;36732;47.980;11.652;2023-02-28T11:08:12;3.20;55.70
50758;DHT22;36732;47.980;11.652;2023-02-28T11:10:48;3.20;55.70
50758;DHT22;36732;47.980;11.652;2023-02-28T11:13:24;3.20;56.20
50758;DHT22;36732;47.980;11.652;2023-02-28T11:15:54;3.20;55.60
50758;DHT22;36732;47.980;11.652;2023-02-28T11:18:29;3.20;55.70
50758;DHT22;36732;47.980;11.652;2023-02-28T11:21:05;3.30;55.70
50758;DHT22;36732;47.980;11.652;2023-02-28T11:23:32;3.30;55.80
50758;DHT22;36732;47.980;11.652;2023-02-28T11:26:01;3.30;55.80
50758;DHT22;36732;47.980;11.652;2023-02-28T11:28:40;3.30;55.80
50758;DHT22;36732;47.980;11.652;2023-02-28T11:34:41;3.30;55.80
50758;DHT22;36732;47.980;11.652;2023-02-28T11:37:01;3.40;55.70
50758;DHT22;36732;47.980;11.652;2023-02-28T11:39:32;3.40;56.10
50758;DHT22;36732;47.980;11.652;2023-02-28T11:42:16;3.40;55.70
50758;DHT22;36732;47.980;11.652;2023-02-28T11:45:20;3.40;55.60
50758;DHT22;36732;47.980;11.652;2023-02-28T11:48:16;3.40;55.60
50758;DHT22;36732;47.980;11.652;2023-02-28T11:51:09;3.40;55.60
50758;DHT22;36732;47.980;11.652;2023-02-28T11:59:08;3.40;55.50
50758;DHT22;36732;47.980;11.652;2023-02-28T12:05:10;3.50;55.70
50758;DHT22;36732;47.980;11.652;2023-02-28T12:10:53;3.50;55.60
50758;DHT22;36732;47.980;11.652;2023-02-28T12:16:27;3.50;55.40
50758;DHT22;36732;47.980;11.652;2023-02-28T12:27:48;3.50;55.60
50758;DHT22;36732;47.980;11.652;2023-02-28T12:30:30;3.60;55.60
50758;DHT22;36732;47.980;11.652;2023-02-28T12:33:09;3.50;55.50
50758;DHT22;36732;47.980;11.652;2023-02-28T12:35:57;3.60;55.50
50758;DHT22;36732;47.980;11.652;2023-02-28T12:38:31;3.60;55.50
50758;DHT22;36732;47.980;11.652;2023-02-28T12:41:04;3.60;55.50
50758;DHT22;36732;47.980;11.652;2023-02-28T12:43:44;3.60;55.50
50758;DHT22;36732;47.980;11.652;2023-02-28T12:46:35;3.60;55.50
50758;DHT22;36732;47.980;11.652;2023-02-28T12:49:13;3.60;55.50
50758;DHT22;36732;47.980;11.652;2023-02-28T12:51:43;3.60;55.50
50758;DHT22;36732;47.980;11.652;2023-02-28T12:54:19;3.60;55.60
50758;DHT22;36732;47.980;11.652;2023-02-28T12:57:15;3.60;55.70
50758;DHT22;36732;47.980;11.652;2023-02-28T12:59:57;3.60;55.60
50758;DHT22;36732;47.980;11.652;2023-02-28T13:06:00;3.70;55.70
50758;DHT22;36732;47.980;11.652;2023-02-28T13:11:32;3.70;55.80
50758;DHT22;36732;47.980;11.652;2023-02-28T13:14:02;3.70;55.90
50758;DHT22;36732;47.980;11.652;2023-02-28T13:16:50;3.70;55.80
50758;DHT22;36732;47.980;11.652;2023-02-28T13:19:20;3.70;55.90
50758;DHT22;36732;47.980;11.652;2023-02-28T13:21:48;3.70;55.90
50758;DHT22;36732;47.980;11.652;2023-02-28T13:24:39;3.70;55.90
50758;DHT22;36732;47.980;11.652;2023-02-28T13:29:52;3.80;56.00
50758;DHT22;36732;47.980;11.652;2023-02-28T13:39:54;3.80;56.00
50758;DHT22;36732;47.980;11.652;2023-02-28T14:04:29;3.90;55.80
50758;DHT22;36732;47.980;11.652;2023-02-28T14:07:03;3.90;55.80
50758;DHT22;36732;47.980;11.652;2023-02-28T14:09:35;3.90;55.80
50758;DHT22;36732;47.980;11.652;2023-02-28T14:35:19;4.00;56.00
50758;DHT22;36732;47.980;11.652;2023-02-28T14:37:53;4.00;55.90
50758;DHT22;36732;47.980;11.652;2023-02-28T14:40:29;4.00;55.90
50758;DHT22;36732;47.980;11.652;2023-02-28T14:43:04;4.00;55.90
50758;DHT22;36732;47.980;11.652;2023-02-28T14:45:35;4.00;55.90
50758;DHT22;36732;47.980;11.652;2023-02-28T14:48:05;4.00;55.90
50758;DHT22;36732;47.980;11.652;2023-02-28T14:50:36;4.00;55.90
50758;DHT22;36732;47.980;11.652;2023-02-28T14:53:03;4.00;55.90
50758;DHT22;36732;47.980;11.652;2023-02-28T14:55:35;4.00;56.00
50758;DHT22;36732;47.980;11.652;2023-02-28T14:58:06;4.00;56.20
50758;DHT22;36732;47.980;11.652;2023-02-28T15:00:51;4.00;56.30
50758;DHT22;36732;47.980;11.652;2023-02-28T15:03:28;4.10;56.30
50758;DHT22;36732;47.980;11.652;2023-02-28T15:06:19;4.10;56.30
50758;DHT22;36732;47.980;11.652;2023-02-28T15:08:46;4.10;56.40
50758;DHT22;36732;47.980;11.652;2023-02-28T15:11:16;4.20;56.40
50758;DHT22;36732;47.980;11.652;2023-02-28T15:13:51;4.20;56.50
50758;DHT22;36732;47.980;11.652;2023-02-28T15:19:18;4.20;56.60
50758;DHT22;36732;47.980;11.652;2023-02-28T15:21:49;4.20;56.40
50758;DHT22;36732;47.980;11.652;2023-02-28T15:26:55;4.30;56.40
50758;DHT22;36732;47.980;11.652;2023-02-28T15:29:25;4.30;56.30
50758;DHT22;36732;47.980;11.652;2023-02-28T15:32:06;4.30;56.40
50758;DHT22;36732;47.980;11.652;2023-02-28T15:34:40;4.40;56.40
50758;DHT22;36732;47.980;11.652;2023-02-28T15:40:14;4.40;56.00
50758;DHT22;36732;47.980;11.652;2023-02-28T15:42:43;4.40;56.00
50758;DHT22;36732;47.980;11.652;2023-02-28T15:48:51;4.40;56.00
50758;DHT22;36732;47.980;11.652;2023-02-28T15:51:21;4.40;56.00
50758;DHT22;36732;47.980;11.652;2023-02-28T15:53:58;4.40;56.00
50758;DHT22;36732;47.980;11.652;2023-02-28T15:58:59;4.40;56.10
50758;DHT22;36732;47.980;11.652;2023-02-28T16:01:34;4.40;56.00
50758;DHT22;36732;47.980;11.652;2023-02-28T16:04:11;4.40;56.10
50758;DHT22;36732;47.980;11.652;2023-02-28T16:06:41;4.40;56.10
50758;DHT22;36732;47.980;11.652;2023-02-28T16:09:11;4.40;56.20
50758;DHT22;36732;47.980;11.652;2023-02-28T16:11:42;4.40;56.20
50758;DHT22;36732;47.980;11.652;2023-02-28T16:14:17;4.40;56.20
50758;DHT22;36732;47.980;11.652;2023-02-28T16:16:47;4.40;56.80
50758;DHT22;36732;47.980;11.652;2023-02-28T16:19:15;4.40;56.20
50758;DHT22;36732;47.980;11.652;2023-02-28T16:21:40;4.40;56.10
50758;DHT22;36732;47.980;11.652;2023-02-28T16:24:06;4.40;56.10
50758;DHT22;36732;47.980;11.652;2023-02-28T16:26:32;4.40;56.00
50758;DHT22;36732;47.980;11.652;2023-02-28T16:29:00;4.40;56.00
50758;DHT22;36732;47.980;11.652;2023-02-28T16:31:27;4.40;56.00
50758;DHT22;36732;47.980;11.652;2023-02-28T16:33:53;4.40;56.00
50758;DHT22;36732;47.980;11.652;2023-02-28T16:36:21;4.40;56.00
50758;DHT22;36732;47.980;11.652;2023-02-28T16:38:50;4.40;56.00
50758;DHT22;36732;47.980;11.652;2023-02-28T16:41:21;4.40;56.00
50758;DHT22;36732;47.980;11.652;2023-02-28T16:43:52;4.40;56.00
50758;DHT22;36732;47.980;11.652;2023-02-28T16:46:23;4.50;56.00
50758;DHT22;36732;47.980;11.652;2023-02-28T16:48:49;4.50;56.10
50758;DHT22;36732;47.980;11.652;2023-02-28T16:51:17;4.50;55.90
50758;DHT22;36732;47.980;11.652;2023-02-28T16:53:43;4.50;55.80
50758;DHT22;36732;47.980;11.652;2023-02-28T16:56:21;4.50;55.80
50758;DHT22;36732;47.980;11.652;2023-02-28T16:58:49;4.50;55.70
50758;DHT22;36732;47.980;11.652;2023-02-28T17:01:17;4.50;55.70
50758;DHT22;36732;47.980;11.652;2023-02-28T17:03:47;4.40;55.70
50758;DHT22;36732;47.980;11.652;2023-02-28T17:06:26;4.50;55.60
50758;DHT22;36732;47.980;11.652;2023-02-28T17:08:54;4.40;55.30
50758;DHT22;36732;47.980;11.652;2023-02-28T17:11:20;4.40;55.30
50758;DHT22;36732;47.980;11.652;2023-02-28T17:13:46;4.40;55.10
50758;DHT22;36732;47.980;11.652;2023-02-28T17:16:32;4.40;55.00
50758;DHT22;36732;47.980;11.652;2023-02-28T17:19:01;4.40;55.00
50758;DHT22;36732;47.980;11.652;2023-02-28T17:21:29;4.40;55.10
50758;DHT22;36732;47.980;11.652;2023-02-28T17:23:56;4.40;55.10
50758;DHT22;36732;47.980;11.652;2023-02-28T17:26:22;4.40;55.20
50758;DHT22;36732;47.980;11.652;2023-02-28T17:28:52;4.40;55.30
50758;DHT22;36732;47.980;11.652;2023-02-28T17:31:20;4.30;55.30
50758;DHT22;36732;47.980;11.652;2023-02-28T17:33:45;4.30;55.30
50758;DHT22;36732;47.980;11.652;2023-02-28T17:36:23;4.30;55.40
50758;DHT22;36732;47.980;11.652;2023-02-28T17:38:51;4.30;55.50
50758;DHT22;36732;47.980;11.652;2023-02-28T17:41:17;4.30;55.60
50758;DHT22;36732;47.980;11.652;2023-02-28T17:43:43;4.30;55.60
50758;DHT22;36732;47.980;11.652;2023-02-28T17:46:29;4.20;55.70
50758;DHT22;36732;47.980;11.652;2023-02-28T17:48:55;4.20;55.90
50758;DHT22;36732;47.980;11.652;2023-02-28T17:51:22;4.20;55.80
50758;DHT22;36732;47.980;11.652;2023-02-28T17:53:49;4.20;56.00
50758;DHT22;36732;47.980;11.652;2023-02-28T17:56:23;4.20;56.10
50758;DHT22;36732;47.980;11.652;2023-02-28T17:58:51;4.20;56.30
50758;DHT22;36732;47.980;11.652;2023-02-28T18:01:19;4.20;56.30
50758;DHT22;36732;47.980;11.652;2023-02-28T18:03:46;4.20;56.40
50758;DHT22;36732;47.980;11.652;2023-02-28T18:06:36;4.20;56.50
50758;DHT22;36732;47.980;11.652;2023-02-28T18:09:16;4.20;56.70
50758;DHT22;36732;47.980;11.652;2023-02-28T18:11:47;4.20;56.60
50758;DHT22;36732;47.980;11.652;2023-02-28T18:14:15;4.20;56.60